Weather at Bismarck Municipal Airport

Public forecast

Using degrees Fahrenheit for public forecast. Weather courtesy of forecast.io.

Current aviation weather report (METAR) for Bismarck Municipal Airport

Report is more than 6 hours old.

2022/11/14 14:52 (retrieved 2 years ago)

KBIS 141452Z 14003KT 9SM R31/6000VP6000FT OVC080 M15/M17 A3016 RMK AO2 SLP251 I3000 T11501172 50001

Aviation forecast (TAF) for Bismarck Municipal Airport

Forecast is more than 12 hours old.

2023/02/22 18:42 (retrieved 1 year ago)

TAF KBIS 221740Z 2218/2318 03013KT P6SM OVC080 FM222100 03015G20KT P6SM VCSH BKN040 OVC070 FM230000 03016G22KT 2SM -SN BLSN OVC028 FM230300 03019G26KT 3/4SM -SN BLSN BKN009 OVC018 FM231000 01014G24KT 4SM -SN BR OVC012 FM231300 36012G18KT P6SM VCSH OVC011